sensor_id;sensor_type;location;lat;lon;timestamp;P1;durP1;ratioP1;P2;durP2;ratioP2
17812;SDS011;9030;50.792;8.320;2022-09-21T00:01:19;10.43;;;5.00;;
17812;SDS011;9030;50.792;8.320;2022-09-21T00:03:50;13.03;;;4.93;;
17812;SDS011;9030;50.792;8.320;2022-09-21T00:06:18;10.40;;;3.80;;
17812;SDS011;9030;50.792;8.320;2022-09-21T00:08:47;10.20;;;3.63;;
17812;SDS011;9030;50.792;8.320;2022-09-21T00:11:14;12.40;;;4.47;;
17812;SDS011;9030;50.792;8.320;2022-09-21T00:13:43;13.67;;;4.30;;
17812;SDS011;9030;50.792;8.320;2022-09-21T00:16:11;10.20;;;3.90;;
17812;SDS011;9030;50.792;8.320;2022-09-21T00:18:39;6.80;;;2.20;;
17812;SDS011;9030;50.792;8.320;2022-09-21T00:21:06;10.60;;;4.50;;
17812;SDS011;9030;50.792;8.320;2022-09-21T00:23:33;8.93;;;3.40;;
17812;SDS011;9030;50.792;8.320;2022-09-21T00:26:05;9.67;;;3.73;;
17812;SDS011;9030;50.792;8.320;2022-09-21T00:28:34;7.07;;;3.67;;
17812;SDS011;9030;50.792;8.320;2022-09-21T00:31:01;9.80;;;4.70;;
17812;SDS011;9030;50.792;8.320;2022-09-21T00:33:29;12.83;;;6.20;;
17812;SDS011;9030;50.792;8.320;2022-09-21T00:36:00;10.50;;;6.20;;
17812;SDS011;9030;50.792;8.320;2022-09-21T00:38:28;12.10;;;6.43;;
17812;SDS011;9030;50.792;8.320;2022-09-21T00:40:55;11.37;;;5.07;;
17812;SDS011;9030;50.792;8.320;2022-09-21T00:43:23;12.37;;;6.30;;
17812;SDS011;9030;50.792;8.320;2022-09-21T00:45:50;12.93;;;6.40;;
17812;SDS011;9030;50.792;8.320;2022-09-21T00:48:22;11.90;;;5.83;;
17812;SDS011;9030;50.792;8.320;2022-09-21T00:50:49;9.33;;;5.30;;
17812;SDS011;9030;50.792;8.320;2022-09-21T00:53:20;10.33;;;5.40;;
17812;SDS011;9030;50.792;8.320;2022-09-21T00:55:47;10.93;;;5.17;;
17812;SDS011;9030;50.792;8.320;2022-09-21T00:58:17;8.87;;;5.03;;
17812;SDS011;9030;50.792;8.320;2022-09-21T01:00:51;10.60;;;5.13;;
17812;SDS011;9030;50.792;8.320;2022-09-21T01:03:17;11.63;;;5.47;;
17812;SDS011;9030;50.792;8.320;2022-09-21T01:05:44;11.70;;;5.30;;
17812;SDS011;9030;50.792;8.320;2022-09-21T01:08:11;14.23;;;5.80;;
17812;SDS011;9030;50.792;8.320;2022-09-21T01:10:42;10.77;;;5.10;;
17812;SDS011;9030;50.792;8.320;2022-09-21T01:13:20;13.00;;;6.17;;
17812;SDS011;9030;50.792;8.320;2022-09-21T01:15:57;7.93;;;4.73;;
17812;SDS011;9030;50.792;8.320;2022-09-21T01:18:33;6.73;;;3.27;;
17812;SDS011;9030;50.792;8.320;2022-09-21T01:21:19;8.37;;;4.33;;
17812;SDS011;9030;50.792;8.320;2022-09-21T01:26:58;5.27;;;2.00;;
17812;SDS011;9030;50.792;8.320;2022-09-21T01:29:47;9.77;;;3.20;;
17812;SDS011;9030;50.792;8.320;2022-09-21T01:32:17;7.50;;;4.00;;
17812;SDS011;9030;50.792;8.320;2022-09-21T01:34:50;7.43;;;3.27;;
17812;SDS011;9030;50.792;8.320;2022-09-21T01:37:21;12.17;;;5.20;;
17812;SDS011;9030;50.792;8.320;2022-09-21T01:39:51;10.20;;;4.67;;
17812;SDS011;9030;50.792;8.320;2022-09-21T01:42:22;10.80;;;3.63;;
17812;SDS011;9030;50.792;8.320;2022-09-21T01:44:53;6.63;;;3.00;;
17812;SDS011;9030;50.792;8.320;2022-09-21T01:47:22;8.23;;;3.13;;
17812;SDS011;9030;50.792;8.320;2022-09-21T01:49:51;15.77;;;5.87;;
17812;SDS011;9030;50.792;8.320;2022-09-21T01:52:22;13.10;;;5.20;;
17812;SDS011;9030;50.792;8.320;2022-09-21T01:54:55;5.60;;;3.00;;
17812;SDS011;9030;50.792;8.320;2022-09-21T01:57:27;8.73;;;3.63;;
17812;SDS011;9030;50.792;8.320;2022-09-21T02:00:01;12.50;;;4.40;;
17812;SDS011;9030;50.792;8.320;2022-09-21T02:02:30;7.33;;;2.97;;
17812;SDS011;9030;50.792;8.320;2022-09-21T02:05:04;7.30;;;4.00;;
17812;SDS011;9030;50.792;8.320;2022-09-21T02:07:31;11.23;;;4.13;;
17812;SDS011;9030;50.792;8.320;2022-09-21T02:09:59;8.87;;;5.17;;
17812;SDS011;9030;50.792;8.320;2022-09-21T02:12:27;10.33;;;5.47;;
17812;SDS011;9030;50.792;8.320;2022-09-21T02:14:55;12.30;;;4.70;;
17812;SDS011;9030;50.792;8.320;2022-09-21T02:17:29;10.53;;;4.73;;
17812;SDS011;9030;50.792;8.320;2022-09-21T02:20:03;8.10;;;4.30;;
17812;SDS011;9030;50.792;8.320;2022-09-21T02:22:43;9.07;;;3.93;;
17812;SDS011;9030;50.792;8.320;2022-09-21T02:25:19;16.07;;;5.90;;
17812;SDS011;9030;50.792;8.320;2022-09-21T02:27:52;10.30;;;4.90;;
17812;SDS011;9030;50.792;8.320;2022-09-21T02:30:22;11.57;;;4.23;;
17812;SDS011;9030;50.792;8.320;2022-09-21T02:32:54;9.20;;;3.93;;
17812;SDS011;9030;50.792;8.320;2022-09-21T02:35:29;9.43;;;4.63;;
17812;SDS011;9030;50.792;8.320;2022-09-21T02:38:03;9.87;;;4.07;;
17812;SDS011;9030;50.792;8.320;2022-09-21T02:40:37;12.97;;;4.23;;
17812;SDS011;9030;50.792;8.320;2022-09-21T02:43:09;8.40;;;3.10;;
17812;SDS011;9030;50.792;8.320;2022-09-21T02:45:40;10.27;;;4.00;;
17812;SDS011;9030;50.792;8.320;2022-09-21T02:48:13;14.27;;;4.43;;
17812;SDS011;9030;50.792;8.320;2022-09-21T02:50:44;7.53;;;3.97;;
17812;SDS011;9030;50.792;8.320;2022-09-21T02:53:14;11.43;;;4.43;;
17812;SDS011;9030;50.792;8.320;2022-09-21T02:55:44;8.37;;;3.97;;
17812;SDS011;9030;50.792;8.320;2022-09-21T02:58:16;8.30;;;4.53;;
17812;SDS011;9030;50.792;8.320;2022-09-21T03:00:45;10.87;;;4.93;;
17812;SDS011;9030;50.792;8.320;2022-09-21T03:03:17;8.50;;;3.93;;
17812;SDS011;9030;50.792;8.320;2022-09-21T03:05:45;15.77;;;8.47;;
17812;SDS011;9030;50.792;8.320;2022-09-21T03:08:14;19.33;;;10.20;;
17812;SDS011;9030;50.792;8.320;2022-09-21T03:10:41;15.83;;;7.13;;
17812;SDS011;9030;50.792;8.320;2022-09-21T03:13:09;9.20;;;4.70;;
17812;SDS011;9030;50.792;8.320;2022-09-21T03:15:36;9.27;;;5.40;;
17812;SDS011;9030;50.792;8.320;2022-09-21T03:18:03;13.10;;;4.00;;
17812;SDS011;9030;50.792;8.320;2022-09-21T03:20:35;16.47;;;5.83;;
17812;SDS011;9030;50.792;8.320;2022-09-21T03:23:02;9.53;;;3.23;;
17812;SDS011;9030;50.792;8.320;2022-09-21T03:25:29;10.60;;;4.93;;
17812;SDS011;9030;50.792;8.320;2022-09-21T03:27:57;12.80;;;4.40;;
17812;SDS011;9030;50.792;8.320;2022-09-21T03:30:25;11.40;;;5.83;;
17812;SDS011;9030;50.792;8.320;2022-09-21T03:32:53;9.67;;;5.13;;
17812;SDS011;9030;50.792;8.320;2022-09-21T03:35:21;14.67;;;6.37;;
17812;SDS011;9030;50.792;8.320;2022-09-21T03:37:50;9.73;;;4.37;;
17812;SDS011;9030;50.792;8.320;2022-09-21T03:40:19;13.47;;;4.97;;
17812;SDS011;9030;50.792;8.320;2022-09-21T03:42:45;10.20;;;3.27;;
17812;SDS011;9030;50.792;8.320;2022-09-21T03:45:12;7.60;;;3.27;;
17812;SDS011;9030;50.792;8.320;2022-09-21T03:47:39;6.33;;;2.77;;
17812;SDS011;9030;50.792;8.320;2022-09-21T03:50:06;13.40;;;4.13;;
17812;SDS011;9030;50.792;8.320;2022-09-21T03:52:35;10.27;;;3.87;;
17812;SDS011;9030;50.792;8.320;2022-09-21T03:55:04;8.40;;;3.87;;
17812;SDS011;9030;50.792;8.320;2022-09-21T03:57:31;9.53;;;3.77;;
17812;SDS011;9030;50.792;8.320;2022-09-21T03:59:58;9.33;;;5.00;;
17812;SDS011;9030;50.792;8.320;2022-09-21T04:02:27;11.57;;;4.87;;
17812;SDS011;9030;50.792;8.320;2022-09-21T04:04:54;11.17;;;4.40;;
17812;SDS011;9030;50.792;8.320;2022-09-21T04:07:21;10.03;;;3.97;;
17812;SDS011;9030;50.792;8.320;2022-09-21T04:09:47;6.97;;;3.43;;
17812;SDS011;9030;50.792;8.320;2022-09-21T04:12:15;9.40;;;4.87;;
17812;SDS011;9030;50.792;8.320;2022-09-21T04:14:42;8.50;;;3.50;;
17812;SDS011;9030;50.792;8.320;2022-09-21T04:17:09;8.40;;;3.97;;
17812;SDS011;9030;50.792;8.320;2022-09-21T04:19:36;10.27;;;4.57;;
17812;SDS011;9030;50.792;8.320;2022-09-21T04:22:02;9.60;;;3.30;;
17812;SDS011;9030;50.792;8.320;2022-09-21T04:24:29;9.83;;;4.47;;
17812;SDS011;9030;50.792;8.320;2022-09-21T04:26:56;14.50;;;4.50;;
17812;SDS011;9030;50.792;8.320;2022-09-21T04:29:24;8.33;;;4.40;;
17812;SDS011;9030;50.792;8.320;2022-09-21T04:31:50;11.73;;;4.17;;
17812;SDS011;9030;50.792;8.320;2022-09-21T04:34:17;10.10;;;3.70;;
17812;SDS011;9030;50.792;8.320;2022-09-21T04:36:44;8.33;;;2.83;;
17812;SDS011;9030;50.792;8.320;2022-09-21T04:39:11;5.70;;;2.53;;
17812;SDS011;9030;50.792;8.320;2022-09-21T04:41:38;10.37;;;3.77;;
17812;SDS011;9030;50.792;8.320;2022-09-21T04:44:06;5.97;;;3.17;;
17812;SDS011;9030;50.792;8.320;2022-09-21T04:46:34;8.67;;;3.80;;
17812;SDS011;9030;50.792;8.320;2022-09-21T04:49:00;12.17;;;5.47;;
17812;SDS011;9030;50.792;8.320;2022-09-21T04:51:27;9.90;;;4.30;;
17812;SDS011;9030;50.792;8.320;2022-09-21T04:53:54;17.20;;;6.33;;
17812;SDS011;9030;50.792;8.320;2022-09-21T04:56:20;10.53;;;7.57;;
17812;SDS011;9030;50.792;8.320;2022-09-21T04:58:47;12.77;;;7.63;;
17812;SDS011;9030;50.792;8.320;2022-09-21T05:01:14;8.70;;;5.23;;
17812;SDS011;9030;50.792;8.320;2022-09-21T05:03:42;10.67;;;6.20;;
17812;SDS011;9030;50.792;8.320;2022-09-21T05:06:08;11.27;;;6.20;;
17812;SDS011;9030;50.792;8.320;2022-09-21T05:08:37;8.97;;;4.17;;
17812;SDS011;9030;50.792;8.320;2022-09-21T05:11:22;11.90;;;4.87;;
17812;SDS011;9030;50.792;8.320;2022-09-21T05:13:49;9.67;;;4.07;;
17812;SDS011;9030;50.792;8.320;2022-09-21T05:16:16;11.23;;;4.80;;
17812;SDS011;9030;50.792;8.320;2022-09-21T05:18:45;14.20;;;4.90;;
17812;SDS011;9030;50.792;8.320;2022-09-21T05:21:13;9.97;;;4.20;;
17812;SDS011;9030;50.792;8.320;2022-09-21T05:23:40;13.13;;;5.20;;
17812;SDS011;9030;50.792;8.320;2022-09-21T05:26:07;14.63;;;6.17;;
17812;SDS011;9030;50.792;8.320;2022-09-21T05:28:34;10.13;;;4.80;;
17812;SDS011;9030;50.792;8.320;2022-09-21T05:31:02;11.83;;;7.73;;
17812;SDS011;9030;50.792;8.320;2022-09-21T05:33:35;17.07;;;8.77;;
17812;SDS011;9030;50.792;8.320;2022-09-21T05:36:05;18.43;;;8.40;;
17812;SDS011;9030;50.792;8.320;2022-09-21T05:38:45;11.63;;;6.87;;
17812;SDS011;9030;50.792;8.320;2022-09-21T05:41:12;10.63;;;6.83;;
17812;SDS011;9030;50.792;8.320;2022-09-21T05:43:40;10.17;;;5.93;;
17812;SDS011;9030;50.792;8.320;2022-09-21T05:46:09;10.60;;;5.83;;
17812;SDS011;9030;50.792;8.320;2022-09-21T05:48:44;17.53;;;8.73;;
17812;SDS011;9030;50.792;8.320;2022-09-21T05:51:28;9.57;;;6.13;;
17812;SDS011;9030;50.792;8.320;2022-09-21T05:54:02;14.87;;;10.63;;
17812;SDS011;9030;50.792;8.320;2022-09-21T05:56:40;12.83;;;9.00;;
17812;SDS011;9030;50.792;8.320;2022-09-21T05:59:20;11.17;;;7.03;;
17812;SDS011;9030;50.792;8.320;2022-09-21T06:02:03;12.17;;;5.70;;
17812;SDS011;9030;50.792;8.320;2022-09-21T06:04:39;10.60;;;3.67;;
17812;SDS011;9030;50.792;8.320;2022-09-21T06:07:07;8.93;;;4.47;;
17812;SDS011;9030;50.792;8.320;2022-09-21T06:09:34;16.70;;;7.53;;
17812;SDS011;9030;50.792;8.320;2022-09-21T06:12:01;54.97;;;28.30;;
17812;SDS011;9030;50.792;8.320;2022-09-21T06:14:28;59.23;;;35.73;;
17812;SDS011;9030;50.792;8.320;2022-09-21T06:16:55;38.30;;;25.10;;
17812;SDS011;9030;50.792;8.320;2022-09-21T06:19:21;29.00;;;18.03;;
17812;SDS011;9030;50.792;8.320;2022-09-21T06:21:48;19.67;;;9.07;;
17812;SDS011;9030;50.792;8.320;2022-09-21T06:24:16;18.97;;;11.60;;
17812;SDS011;9030;50.792;8.320;2022-09-21T06:26:43;22.87;;;19.33;;
17812;SDS011;9030;50.792;8.320;2022-09-21T06:29:09;22.33;;;16.93;;
17812;SDS011;9030;50.792;8.320;2022-09-21T06:31:36;18.93;;;14.77;;
17812;SDS011;9030;50.792;8.320;2022-09-21T06:34:03;17.17;;;12.93;;
17812;SDS011;9030;50.792;8.320;2022-09-21T06:36:29;20.27;;;13.00;;
17812;SDS011;9030;50.792;8.320;2022-09-21T06:38:56;15.70;;;10.87;;
17812;SDS011;9030;50.792;8.320;2022-09-21T06:41:24;20.63;;;10.83;;
17812;SDS011;9030;50.792;8.320;2022-09-21T06:43:52;16.73;;;13.23;;
17812;SDS011;9030;50.792;8.320;2022-09-21T06:46:20;23.87;;;14.70;;
17812;SDS011;9030;50.792;8.320;2022-09-21T06:48:46;17.53;;;10.83;;
17812;SDS011;9030;50.792;8.320;2022-09-21T06:51:14;14.87;;;9.07;;
17812;SDS011;9030;50.792;8.320;2022-09-21T06:53:40;15.20;;;8.10;;
17812;SDS011;9030;50.792;8.320;2022-09-21T06:56:08;14.40;;;8.50;;
17812;SDS011;9030;50.792;8.320;2022-09-21T06:58:36;15.13;;;10.30;;
17812;SDS011;9030;50.792;8.320;2022-09-21T07:01:04;16.83;;;10.77;;
17812;SDS011;9030;50.792;8.320;2022-09-21T07:03:32;15.90;;;9.43;;
17812;SDS011;9030;50.792;8.320;2022-09-21T07:05:58;15.13;;;9.83;;
17812;SDS011;9030;50.792;8.320;2022-09-21T07:08:25;15.40;;;8.07;;
17812;SDS011;9030;50.792;8.320;2022-09-21T07:10:52;14.40;;;10.03;;
17812;SDS011;9030;50.792;8.320;2022-09-21T07:13:23;15.37;;;9.97;;
17812;SDS011;9030;50.792;8.320;2022-09-21T07:15:51;16.30;;;10.70;;
17812;SDS011;9030;50.792;8.320;2022-09-21T07:18:17;15.43;;;10.67;;
17812;SDS011;9030;50.792;8.320;2022-09-21T07:20:45;14.40;;;8.07;;
17812;SDS011;9030;50.792;8.320;2022-09-21T07:23:13;16.50;;;11.10;;
17812;SDS011;9030;50.792;8.320;2022-09-21T07:25:41;15.67;;;10.03;;
17812;SDS011;9030;50.792;8.320;2022-09-21T07:28:08;17.23;;;8.90;;
17812;SDS011;9030;50.792;8.320;2022-09-21T07:30:35;14.87;;;9.30;;
17812;SDS011;9030;50.792;8.320;2022-09-21T07:33:04;15.67;;;9.47;;
17812;SDS011;9030;50.792;8.320;2022-09-21T07:35:31;16.53;;;8.80;;
17812;SDS011;9030;50.792;8.320;2022-09-21T07:37:58;14.23;;;7.30;;
17812;SDS011;9030;50.792;8.320;2022-09-21T07:40:25;13.97;;;6.73;;
17812;SDS011;9030;50.792;8.320;2022-09-21T07:42:56;12.87;;;6.63;;
17812;SDS011;9030;50.792;8.320;2022-09-21T07:45:22;11.20;;;6.17;;
17812;SDS011;9030;50.792;8.320;2022-09-21T07:47:49;11.50;;;6.27;;
17812;SDS011;9030;50.792;8.320;2022-09-21T07:50:19;10.80;;;7.23;;
17812;SDS011;9030;50.792;8.320;2022-09-21T07:52:46;12.97;;;7.10;;
17812;SDS011;9030;50.792;8.320;2022-09-21T07:55:13;13.77;;;5.63;;
17812;SDS011;9030;50.792;8.320;2022-09-21T07:57:40;9.60;;;6.50;;
17812;SDS011;9030;50.792;8.320;2022-09-21T08:00:24;14.80;;;6.87;;
17812;SDS011;9030;50.792;8.320;2022-09-21T08:02:53;12.23;;;7.27;;
17812;SDS011;9030;50.792;8.320;2022-09-21T08:05:21;12.63;;;6.03;;
17812;SDS011;9030;50.792;8.320;2022-09-21T08:07:47;12.47;;;7.07;;
17812;SDS011;9030;50.792;8.320;2022-09-21T08:10:17;10.47;;;5.80;;
17812;SDS011;9030;50.792;8.320;2022-09-21T08:12:43;14.23;;;6.00;;
17812;SDS011;9030;50.792;8.320;2022-09-21T08:15:10;9.35;;;4.90;;
17812;SDS011;9030;50.792;8.320;2022-09-21T08:17:38;11.43;;;5.30;;
17812;SDS011;9030;50.792;8.320;2022-09-21T08:20:05;10.40;;;5.28;;
17812;SDS011;9030;50.792;8.320;2022-09-21T08:22:34;9.20;;;4.82;;
17812;SDS011;9030;50.792;8.320;2022-09-21T08:25:00;10.13;;;4.50;;
17812;SDS011;9030;50.792;8.320;2022-09-21T08:27:27;12.23;;;5.00;;
17812;SDS011;9030;50.792;8.320;2022-09-21T08:29:54;11.45;;;4.80;;
17812;SDS011;9030;50.792;8.320;2022-09-21T08:32:21;9.80;;;3.88;;
17812;SDS011;9030;50.792;8.320;2022-09-21T08:34:48;10.35;;;4.72;;
17812;SDS011;9030;50.792;8.320;2022-09-21T08:37:15;12.05;;;4.50;;
17812;SDS011;9030;50.792;8.320;2022-09-21T08:39:44;10.77;;;4.47;;
17812;SDS011;9030;50.792;8.320;2022-09-21T08:42:14;10.80;;;3.80;;
17812;SDS011;9030;50.792;8.320;2022-09-21T08:45:03;7.80;;;3.10;;
17812;SDS011;9030;50.792;8.320;2022-09-21T08:47:35;9.43;;;3.40;;
17812;SDS011;9030;50.792;8.320;2022-09-21T08:50:11;9.85;;;3.67;;
17812;SDS011;9030;50.792;8.320;2022-09-21T08:52:51;7.57;;;3.40;;
17812;SDS011;9030;50.792;8.320;2022-09-21T08:55:26;7.65;;;2.63;;
17812;SDS011;9030;50.792;8.320;2022-09-21T08:57:53;8.55;;;2.70;;
17812;SDS011;9030;50.792;8.320;2022-09-21T09:00:20;11.20;;;2.70;;
17812;SDS011;9030;50.792;8.320;2022-09-21T09:05:43;8.30;;;2.70;;
17812;SDS011;9030;50.792;8.320;2022-09-21T09:08:23;9.07;;;2.45;;
17812;SDS011;9030;50.792;8.320;2022-09-21T09:11:15;7.15;;;2.17;;
17812;SDS011;9030;50.792;8.320;2022-09-21T09:16:50;4.78;;;1.98;;
17812;SDS011;9030;50.792;8.320;2022-09-21T09:19:25;5.93;;;2.15;;
17812;SDS011;9030;50.792;8.320;2022-09-21T09:21:54;5.00;;;2.05;;
17812;SDS011;9030;50.792;8.320;2022-09-21T09:24:26;10.25;;;2.30;;
17812;SDS011;9030;50.792;8.320;2022-09-21T09:27:00;7.65;;;1.58;;
17812;SDS011;9030;50.792;8.320;2022-09-21T09:29:32;6.53;;;1.58;;
17812;SDS011;9030;50.792;8.320;2022-09-21T09:32:07;7.15;;;1.38;;
17812;SDS011;9030;50.792;8.320;2022-09-21T09:34:39;6.72;;;1.27;;
17812;SDS011;9030;50.792;8.320;2022-09-21T09:37:09;11.30;;;2.05;;
17812;SDS011;9030;50.792;8.320;2022-09-21T09:39:37;6.80;;;1.30;;
17812;SDS011;9030;50.792;8.320;2022-09-21T09:45:17;7.68;;;1.33;;
17812;SDS011;9030;50.792;8.320;2022-09-21T09:47:58;6.00;;;1.33;;
17812;SDS011;9030;50.792;8.320;2022-09-21T09:50:32;7.45;;;1.23;;
17812;SDS011;9030;50.792;8.320;2022-09-21T09:53:03;5.82;;;1.48;;
17812;SDS011;9030;50.792;8.320;2022-09-21T09:55:35;8.32;;;2.08;;
17812;SDS011;9030;50.792;8.320;2022-09-21T09:58:04;6.82;;;1.00;;
17812;SDS011;9030;50.792;8.320;2022-09-21T10:00:41;7.82;;;1.08;;
17812;SDS011;9030;50.792;8.320;2022-09-21T10:03:14;5.55;;;1.38;;
17812;SDS011;9030;50.792;8.320;2022-09-21T10:05:41;6.22;;;1.33;;
17812;SDS011;9030;50.792;8.320;2022-09-21T10:08:24;4.50;;;0.98;;
17812;SDS011;9030;50.792;8.320;2022-09-21T10:11:04;4.07;;;1.10;;
17812;SDS011;9030;50.792;8.320;2022-09-21T10:13:32;2.33;;;0.75;;
17812;SDS011;9030;50.792;8.320;2022-09-21T10:16:01;4.20;;;1.00;;
17812;SDS011;9030;50.792;8.320;2022-09-21T10:18:33;4.25;;;0.93;;
17812;SDS011;9030;50.792;8.320;2022-09-21T10:21:04;4.40;;;1.20;;
17812;SDS011;9030;50.792;8.320;2022-09-21T10:23:33;3.35;;;0.80;;
17812;SDS011;9030;50.792;8.320;2022-09-21T10:26:02;5.25;;;1.00;;
17812;SDS011;9030;50.792;8.320;2022-09-21T10:28:32;6.28;;;1.88;;
17812;SDS011;9030;50.792;8.320;2022-09-21T10:31:11;3.90;;;0.82;;
17812;SDS011;9030;50.792;8.320;2022-09-21T10:33:46;2.92;;;0.93;;
17812;SDS011;9030;50.792;8.320;2022-09-21T10:36:29;4.15;;;0.77;;
17812;SDS011;9030;50.792;8.320;2022-09-21T10:41:46;4.00;;;1.25;;
17812;SDS011;9030;50.792;8.320;2022-09-21T10:44:14;3.88;;;0.75;;
17812;SDS011;9030;50.792;8.320;2022-09-21T10:46:44;6.82;;;1.30;;
17812;SDS011;9030;50.792;8.320;2022-09-21T10:49:14;4.43;;;1.20;;
17812;SDS011;9030;50.792;8.320;2022-09-21T10:51:45;8.80;;;1.13;;
17812;SDS011;9030;50.792;8.320;2022-09-21T10:54:16;3.50;;;0.95;;
17812;SDS011;9030;50.792;8.320;2022-09-21T10:56:53;5.88;;;1.45;;
17812;SDS011;9030;50.792;8.320;2022-09-21T10:59:26;7.03;;;0.90;;
17812;SDS011;9030;50.792;8.320;2022-09-21T11:01:56;4.75;;;1.17;;
17812;SDS011;9030;50.792;8.320;2022-09-21T11:04:28;3.88;;;0.75;;
17812;SDS011;9030;50.792;8.320;2022-09-21T11:07:11;5.38;;;1.05;;
17812;SDS011;9030;50.792;8.320;2022-09-21T11:09:43;5.90;;;1.05;;
17812;SDS011;9030;50.792;8.320;2022-09-21T11:12:20;6.30;;;0.80;;
17812;SDS011;9030;50.792;8.320;2022-09-21T11:15:08;5.72;;;1.13;;
17812;SDS011;9030;50.792;8.320;2022-09-21T11:17:45;8.80;;;1.52;;
17812;SDS011;9030;50.792;8.320;2022-09-21T11:20:19;4.45;;;0.98;;
17812;SDS011;9030;50.792;8.320;2022-09-21T11:22:53;6.05;;;1.27;;
17812;SDS011;9030;50.792;8.320;2022-09-21T11:25:27;4.88;;;1.00;;
17812;SDS011;9030;50.792;8.320;2022-09-21T11:28:01;5.05;;;1.00;;
17812;SDS011;9030;50.792;8.320;2022-09-21T11:30:40;4.68;;;0.80;;
17812;SDS011;9030;50.792;8.320;2022-09-21T11:33:22;6.22;;;1.40;;
17812;SDS011;9030;50.792;8.320;2022-09-21T11:36:00;3.17;;;0.82;;
17812;SDS011;9030;50.792;8.320;2022-09-21T11:38:38;3.90;;;1.13;;
17812;SDS011;9030;50.792;8.320;2022-09-21T11:41:13;4.25;;;1.10;;
17812;SDS011;9030;50.792;8.320;2022-09-21T11:44:00;2.95;;;1.15;;
17812;SDS011;9030;50.792;8.320;2022-09-21T11:46:45;4.95;;;1.33;;
17812;SDS011;9030;50.792;8.320;2022-09-21T11:49:23;3.83;;;1.50;;
17812;SDS011;9030;50.792;8.320;2022-09-21T11:52:03;6.90;;;1.23;;
17812;SDS011;9030;50.792;8.320;2022-09-21T11:54:46;4.45;;;1.40;;
17812;SDS011;9030;50.792;8.320;2022-09-21T11:57:24;4.30;;;0.80;;
17812;SDS011;9030;50.792;8.320;2022-09-21T11:59:56;10.98;;;1.45;;
17812;SDS011;9030;50.792;8.320;2022-09-21T12:02:35;5.10;;;0.82;;
17812;SDS011;9030;50.792;8.320;2022-09-21T12:05:30;6.10;;;1.02;;
17812;SDS011;9030;50.792;8.320;2022-09-21T12:10:54;3.10;;;0.98;;
17812;SDS011;9030;50.792;8.320;2022-09-21T12:13:26;3.70;;;0.95;;
17812;SDS011;9030;50.792;8.320;2022-09-21T12:16:00;3.10;;;0.65;;
17812;SDS011;9030;50.792;8.320;2022-09-21T12:18:33;4.60;;;0.85;;
17812;SDS011;9030;50.792;8.320;2022-09-21T12:21:08;4.65;;;0.90;;
17812;SDS011;9030;50.792;8.320;2022-09-21T12:23:40;1.70;;;1.23;;
17812;SDS011;9030;50.792;8.320;2022-09-21T12:26:09;3.05;;;0.93;;
17812;SDS011;9030;50.792;8.320;2022-09-21T12:28:40;3.38;;;0.65;;
17812;SDS011;9030;50.792;8.320;2022-09-21T12:31:11;2.08;;;0.60;;
17812;SDS011;9030;50.792;8.320;2022-09-21T12:33:47;3.70;;;0.60;;
17812;SDS011;9030;50.792;8.320;2022-09-21T12:36:19;2.03;;;0.70;;
17812;SDS011;9030;50.792;8.320;2022-09-21T12:38:51;3.92;;;0.70;;
17812;SDS011;9030;50.792;8.320;2022-09-21T12:41:25;2.80;;;0.50;;
17812;SDS011;9030;50.792;8.320;2022-09-21T12:44:00;4.45;;;0.60;;
17812;SDS011;9030;50.792;8.320;2022-09-21T12:46:35;3.40;;;0.95;;
17812;SDS011;9030;50.792;8.320;2022-09-21T12:49:10;1.67;;;0.52;;
17812;SDS011;9030;50.792;8.320;2022-09-21T12:51:42;3.13;;;0.80;;
17812;SDS011;9030;50.792;8.320;2022-09-21T12:54:14;5.13;;;0.75;;
17812;SDS011;9030;50.792;8.320;2022-09-21T12:56:52;4.78;;;0.90;;
17812;SDS011;9030;50.792;8.320;2022-09-21T12:59:29;3.78;;;0.80;;
17812;SDS011;9030;50.792;8.320;2022-09-21T13:02:03;6.95;;;1.15;;
17812;SDS011;9030;50.792;8.320;2022-09-21T13:04:47;5.72;;;1.00;;
17812;SDS011;9030;50.792;8.320;2022-09-21T13:10:16;0.88;;;0.60;;
17812;SDS011;9030;50.792;8.320;2022-09-21T13:12:46;3.83;;;0.82;;
17812;SDS011;9030;50.792;8.320;2022-09-21T13:15:22;7.45;;;1.38;;
17812;SDS011;9030;50.792;8.320;2022-09-21T13:17:58;3.85;;;1.10;;
17812;SDS011;9030;50.792;8.320;2022-09-21T13:20:31;7.03;;;1.48;;
17812;SDS011;9030;50.792;8.320;2022-09-21T13:23:01;3.58;;;1.40;;
17812;SDS011;9030;50.792;8.320;2022-09-21T13:25:29;6.13;;;1.45;;
17812;SDS011;9030;50.792;8.320;2022-09-21T13:28:02;3.17;;;0.85;;
17812;SDS011;9030;50.792;8.320;2022-09-21T13:30:44;3.30;;;0.55;;
17812;SDS011;9030;50.792;8.320;2022-09-21T13:36:03;4.40;;;0.88;;
17812;SDS011;9030;50.792;8.320;2022-09-21T13:41:37;4.55;;;0.60;;
17812;SDS011;9030;50.792;8.320;2022-09-21T13:44:12;2.75;;;0.68;;
17812;SDS011;9030;50.792;8.320;2022-09-21T13:46:46;2.95;;;0.82;;
17812;SDS011;9030;50.792;8.320;2022-09-21T13:49:25;3.38;;;1.20;;
17812;SDS011;9030;50.792;8.320;2022-09-21T13:52:23;1.85;;;0.60;;
17812;SDS011;9030;50.792;8.320;2022-09-21T13:54:55;3.03;;;0.82;;
17812;SDS011;9030;50.792;8.320;2022-09-21T13:57:27;1.75;;;0.60;;
17812;SDS011;9030;50.792;8.320;2022-09-21T14:00:05;4.18;;;0.50;;
17812;SDS011;9030;50.792;8.320;2022-09-21T14:02:53;7.70;;;2.00;;
17812;SDS011;9030;50.792;8.320;2022-09-21T14:05:24;2.33;;;0.73;;
17812;SDS011;9030;50.792;8.320;2022-09-21T14:07:55;2.05;;;0.50;;
17812;SDS011;9030;50.792;8.320;2022-09-21T14:10:25;2.67;;;0.73;;
17812;SDS011;9030;50.792;8.320;2022-09-21T14:12:55;3.47;;;0.65;;
17812;SDS011;9030;50.792;8.320;2022-09-21T14:15:33;1.52;;;0.50;;
17812;SDS011;9030;50.792;8.320;2022-09-21T14:18:33;3.00;;;0.50;;
17812;SDS011;9030;50.792;8.320;2022-09-21T14:21:14;2.63;;;0.65;;
17812;SDS011;9030;50.792;8.320;2022-09-21T14:27:02;3.22;;;0.60;;
17812;SDS011;9030;50.792;8.320;2022-09-21T14:29:40;3.28;;;0.63;;
17812;SDS011;9030;50.792;8.320;2022-09-21T14:32:13;6.65;;;0.90;;
17812;SDS011;9030;50.792;8.320;2022-09-21T14:34:44;4.05;;;0.73;;
17812;SDS011;9030;50.792;8.320;2022-09-21T14:37:19;3.30;;;0.70;;
17812;SDS011;9030;50.792;8.320;2022-09-21T14:39:53;4.28;;;0.75;;
17812;SDS011;9030;50.792;8.320;2022-09-21T14:42:22;2.67;;;0.88;;
17812;SDS011;9030;50.792;8.320;2022-09-21T14:44:53;3.78;;;0.70;;
17812;SDS011;9030;50.792;8.320;2022-09-21T14:47:28;2.25;;;0.90;;
17812;SDS011;9030;50.792;8.320;2022-09-21T14:50:15;3.10;;;0.90;;
17812;SDS011;9030;50.792;8.320;2022-09-21T14:56:00;5.75;;;2.33;;
17812;SDS011;9030;50.792;8.320;2022-09-21T14:58:37;6.68;;;2.22;;
17812;SDS011;9030;50.792;8.320;2022-09-21T15:01:24;5.05;;;1.10;;
17812;SDS011;9030;50.792;8.320;2022-09-21T15:04:07;4.55;;;1.10;;
17812;SDS011;9030;50.792;8.320;2022-09-21T15:07:01;3.33;;;1.15;;
17812;SDS011;9030;50.792;8.320;2022-09-21T15:10:10;2.83;;;1.00;;
17812;SDS011;9030;50.792;8.320;2022-09-21T15:13:06;6.50;;;1.15;;
17812;SDS011;9030;50.792;8.320;2022-09-21T15:15:45;5.97;;;1.02;;
17812;SDS011;9030;50.792;8.320;2022-09-21T15:18:39;3.08;;;0.93;;
17812;SDS011;9030;50.792;8.320;2022-09-21T15:21:15;5.50;;;1.00;;
17812;SDS011;9030;50.792;8.320;2022-09-21T15:23:46;6.00;;;1.30;;
17812;SDS011;9030;50.792;8.320;2022-09-21T15:26:15;1.60;;;1.05;;
17812;SDS011;9030;50.792;8.320;2022-09-21T15:28:48;3.15;;;1.13;;
17812;SDS011;9030;50.792;8.320;2022-09-21T15:31:18;5.05;;;1.35;;
17812;SDS011;9030;50.792;8.320;2022-09-21T15:33:47;4.07;;;1.50;;
17812;SDS011;9030;50.792;8.320;2022-09-21T15:36:20;3.67;;;1.40;;
17812;SDS011;9030;50.792;8.320;2022-09-21T15:38:48;4.03;;;1.05;;
17812;SDS011;9030;50.792;8.320;2022-09-21T15:44:10;5.90;;;1.70;;
17812;SDS011;9030;50.792;8.320;2022-09-21T15:46:39;3.13;;;1.10;;
17812;SDS011;9030;50.792;8.320;2022-09-21T15:49:10;2.75;;;1.08;;
17812;SDS011;9030;50.792;8.320;2022-09-21T15:51:39;3.22;;;1.00;;
17812;SDS011;9030;50.792;8.320;2022-09-21T15:54:22;12.45;;;1.58;;
17812;SDS011;9030;50.792;8.320;2022-09-21T15:56:56;4.15;;;1.20;;
17812;SDS011;9030;50.792;8.320;2022-09-21T15:59:23;3.42;;;2.28;;